James Island, South Carolina
Current Conditions -  °F | °C
As of 3:55 PM on Tuesday 27 Jan 2015 (Local Time) from KJZI Reporting Station
Clear Clear  
Wind Chill: 50°   Ceiling: Unl
Heat Index: 50°   Visibility: 10mi
Dew Point: 28°   Wind: 13mph
Humidity: 43%   Direction: 280°W
Pressure: 29.88"   Gusts: 18mph
Location:  32.7248°N, 79.9608°W
Report Text: KJZI 272055Z AUTO 28011G16KT 10SM CLR 10/M02 A2988 RMK A02 P000
Loading
Personal Weather Stations






























Interactive Weather Map New forecast layout! Learn more

10-Day Weather Forecast

Advertisements
Track Severe Weather on mobile